createdAt,value
2022-11-03T00:00:29.245Z,6.70
2022-11-03T00:02:55.953Z,6.70
2022-11-03T00:05:45.551Z,8.30
2022-11-03T00:10:43.594Z,6.80
2022-11-03T00:13:10.198Z,6.60
2022-11-03T00:15:36.798Z,8.30
2022-11-03T00:18:03.472Z,8.10
2022-11-03T00:20:30.051Z,6.70
2022-11-03T00:22:56.688Z,6.60
2022-11-03T00:25:23.270Z,6.70
2022-11-03T00:27:54.178Z,6.60
2022-11-03T00:30:20.759Z,6.60
2022-11-03T00:32:47.316Z,6.70
2022-11-03T00:35:13.923Z,6.70
2022-11-03T00:37:40.494Z,6.70
2022-11-03T00:40:07.410Z,6.60
2022-11-03T00:42:35.106Z,6.70
2022-11-03T00:45:01.657Z,7.10
2022-11-03T00:47:28.374Z,6.60
2022-11-03T00:49:54.935Z,6.60
2022-11-03T00:52:21.512Z,6.60
2022-11-03T00:54:51.339Z,6.70
2022-11-03T00:57:21.821Z,6.80
2022-11-03T00:59:48.422Z,6.70
2022-11-03T01:02:15.213Z,6.70
2022-11-03T01:05:00.564Z,6.80
2022-11-03T01:07:27.157Z,6.80
2022-11-03T01:09:53.767Z,6.90
2022-11-03T01:12:20.349Z,6.90
2022-11-03T01:14:51.421Z,8.90
2022-11-03T01:17:18.125Z,8.90
2022-11-03T01:19:44.869Z,8.90
2022-11-03T01:22:12.626Z,7.20
2022-11-03T01:24:41.312Z,8.40
2022-11-03T01:27:08.810Z,7.30
2022-11-03T01:29:35.394Z,7.30
2022-11-03T01:32:02.036Z,7.30
2022-11-03T01:34:28.739Z,7.30
2022-11-03T01:36:55.304Z,8.80
2022-11-03T01:39:21.923Z,7.20
2022-11-03T01:41:50.330Z,7.20
2022-11-03T01:44:16.869Z,7.80
2022-11-03T01:46:48.218Z,7.10
2022-11-03T01:49:17.098Z,7.10
2022-11-03T01:51:44.561Z,7.10
2022-11-03T01:54:14.667Z,7.50
2022-11-03T01:56:42.226Z,7.10
2022-11-03T01:59:09.951Z,6.90
2022-11-03T02:01:36.763Z,6.90
2022-11-03T02:04:10.881Z,8.40
2022-11-03T02:06:37.715Z,6.80
2022-11-03T02:09:05.784Z,6.90
2022-11-03T02:11:51.651Z,6.70
2022-11-03T02:14:18.322Z,6.70
2022-11-03T02:16:48.713Z,7.20
2022-11-03T02:19:38.664Z,6.60
2022-11-03T02:22:23.957Z,6.60
2022-11-03T02:24:54.086Z,6.60
2022-11-03T02:27:21.451Z,6.60
2022-11-03T02:29:48.196Z,6.60
2022-11-03T02:32:26.819Z,6.60
2022-11-03T02:34:59.031Z,6.60
2022-11-03T02:37:28.238Z,6.50
2022-11-03T02:39:58.796Z,6.50
2022-11-03T02:42:26.179Z,6.50
2022-11-03T02:44:53.627Z,6.50
2022-11-03T02:47:21.456Z,6.40
2022-11-03T02:49:49.203Z,6.50
2022-11-03T02:52:34.386Z,6.30
2022-11-03T02:55:03.537Z,6.30
2022-11-03T02:57:32.481Z,6.80
2022-11-03T03:00:09.294Z,6.20
2022-11-03T03:02:39.202Z,6.20
2022-11-03T03:05:07.558Z,6.20
2022-11-03T03:07:36.218Z,6.20
2022-11-03T03:10:12.344Z,6.20
2022-11-03T03:12:41.331Z,6.10
2022-11-03T03:15:08.444Z,6.10
2022-11-03T03:17:56.028Z,6.00
2022-11-03T03:20:32.986Z,6.00
2022-11-03T03:23:06.248Z,6.00
2022-11-03T03:25:43.318Z,6.00
2022-11-03T03:28:11.481Z,5.90
2022-11-03T03:30:39.007Z,5.90
2022-11-03T03:33:07.324Z,5.90
2022-11-03T03:35:34.857Z,5.90
2022-11-03T03:38:03.525Z,5.90
2022-11-03T03:40:35.424Z,7.40
2022-11-03T03:43:03.260Z,5.90
2022-11-03T03:45:30.325Z,5.90
2022-11-03T03:47:57.931Z,5.80
2022-11-03T03:50:26.574Z,5.80
2022-11-03T03:53:04.158Z,5.80
2022-11-03T03:55:38.004Z,5.70
2022-11-03T03:58:05.312Z,5.70
2022-11-03T04:00:32.448Z,5.70
2022-11-03T04:02:59.406Z,5.60
2022-11-03T04:05:26.731Z,5.60
2022-11-03T04:07:53.307Z,5.60
2022-11-03T04:10:21.004Z,5.60
2022-11-03T04:13:06.479Z,5.50
2022-11-03T04:15:51.654Z,5.50
2022-11-03T04:18:37.349Z,5.40
2022-11-03T04:21:22.920Z,5.40
2022-11-03T04:23:49.555Z,5.40
2022-11-03T04:26:17.277Z,5.40
2022-11-03T04:28:44.001Z,5.30
2022-11-03T04:31:11.391Z,5.30
2022-11-03T04:33:38.004Z,5.30
2022-11-03T04:36:10.486Z,5.30
2022-11-03T04:38:37.242Z,5.30
2022-11-03T04:41:07.132Z,5.30
2022-11-03T04:43:34.775Z,5.20
2022-11-03T04:46:02.026Z,5.20
2022-11-03T04:48:29.347Z,5.20
2022-11-03T04:50:57.877Z,5.20
2022-11-03T04:53:24.553Z,5.20
2022-11-03T04:55:51.821Z,5.20
2022-11-03T04:58:20.587Z,5.20
2022-11-03T05:00:49.566Z,5.20
2022-11-03T05:03:27.159Z,5.20
2022-11-03T05:05:53.740Z,5.20
2022-11-03T05:08:20.991Z,5.40
2022-11-03T05:10:48.222Z,5.30
2022-11-03T05:13:21.089Z,5.20
2022-11-03T05:15:47.961Z,5.20
2022-11-03T05:18:19.461Z,5.20
2022-11-03T05:20:58.153Z,5.20
2022-11-03T05:23:26.969Z,5.10
2022-11-03T05:25:54.061Z,5.10
2022-11-03T05:28:20.704Z,5.10
2022-11-03T05:30:48.603Z,5.00
2022-11-03T05:33:18.463Z,5.10
2022-11-03T05:35:45.027Z,5.00
2022-11-03T05:38:13.139Z,5.00
2022-11-03T05:40:39.688Z,5.00
2022-11-03T05:43:12.175Z,5.00
2022-11-03T05:45:39.009Z,4.90
2022-11-03T05:48:11.458Z,4.90
2022-11-03T05:50:40.413Z,4.90
2022-11-03T05:53:22.594Z,6.50
2022-11-03T05:55:49.517Z,4.90
2022-11-03T05:58:22.141Z,4.90
2022-11-03T06:00:49.125Z,4.90
2022-11-03T06:03:18.027Z,4.90
2022-11-03T06:05:45.983Z,4.80
2022-11-03T06:08:14.752Z,4.80
2022-11-03T06:10:45.261Z,4.80
2022-11-03T06:13:14.050Z,4.80
2022-11-03T06:15:41.913Z,4.80
2022-11-03T06:18:22.144Z,4.90
2022-11-03T06:20:50.946Z,4.90
2022-11-03T06:23:18.355Z,4.90
2022-11-03T06:25:45.604Z,4.90
2022-11-03T06:28:16.306Z,4.90
2022-11-03T06:33:25.690Z,5.00
2022-11-03T06:35:54.041Z,5.00
2022-11-03T06:38:27.740Z,5.10
2022-11-03T06:40:54.698Z,5.10
2022-11-03T06:43:28.708Z,5.20
2022-11-03T06:45:58.925Z,5.20
2022-11-03T06:48:26.749Z,5.30
2022-11-03T06:50:53.785Z,5.40
2022-11-03T06:53:22.503Z,3.40
2022-11-03T06:55:49.607Z,6.90
2022-11-03T06:58:16.214Z,5.60
2022-11-03T07:00:48.813Z,5.60
2022-11-03T07:03:46.945Z,5.70
2022-11-03T07:06:13.537Z,5.80
2022-11-03T07:08:50.776Z,5.80
2022-11-03T07:11:19.410Z,5.90
2022-11-03T07:13:50.339Z,6.00
2022-11-03T07:16:37.203Z,6.10
2022-11-03T07:19:05.044Z,6.10
2022-11-03T07:21:34.667Z,6.10
2022-11-03T07:24:02.895Z,6.20
2022-11-03T07:26:29.618Z,6.30
2022-11-03T07:28:56.353Z,6.30
2022-11-03T07:31:24.781Z,6.40
2022-11-03T07:33:55.517Z,6.40
2022-11-03T07:36:22.673Z,6.60
2022-11-03T07:38:51.410Z,6.60
2022-11-03T07:41:21.841Z,6.70
2022-11-03T07:43:52.534Z,6.80
2022-11-03T07:46:20.333Z,6.20
2022-11-03T07:48:48.301Z,7.10
2022-11-03T07:51:24.232Z,7.20
2022-11-03T07:53:52.008Z,7.30
2022-11-03T07:56:26.087Z,7.90
2022-11-03T07:58:58.674Z,7.50
2022-11-03T08:01:32.885Z,7.60
2022-11-03T08:04:02.024Z,7.80
2022-11-03T08:06:28.655Z,7.90
2022-11-03T08:08:55.322Z,8.10
2022-11-03T08:11:26.164Z,8.20
2022-11-03T08:13:55.902Z,8.30
2022-11-03T08:16:22.515Z,8.50
2022-11-03T08:18:49.073Z,8.60
2022-11-03T08:21:17.337Z,8.70
2022-11-03T08:23:47.363Z,8.80
2022-11-03T08:26:15.130Z,8.90
2022-11-03T08:28:41.845Z,9.00
2022-11-03T08:31:12.678Z,10.70
2022-11-03T08:33:39.963Z,9.20
2022-11-03T08:36:06.610Z,9.30
2022-11-03T08:38:33.250Z,9.40
2022-11-03T08:41:00.103Z,9.50
2022-11-03T08:43:26.827Z,9.60
2022-11-03T08:45:53.895Z,10.80
2022-11-03T08:48:21.158Z,9.70
2022-11-03T08:50:48.641Z,9.90
2022-11-03T08:53:15.220Z,11.10
2022-11-03T08:55:41.785Z,10.30
2022-11-03T08:58:08.910Z,10.40
2022-11-03T09:00:40.704Z,10.50
2022-11-03T09:03:07.928Z,10.60
2022-11-03T09:05:34.656Z,10.70
2022-11-03T09:10:48.134Z,10.80
2022-11-03T09:13:14.706Z,10.90
2022-11-03T09:15:41.349Z,11.00
2022-11-03T09:18:08.069Z,11.10
2022-11-03T09:20:34.884Z,11.20
2022-11-03T09:23:01.487Z,11.50
2022-11-03T09:25:28.103Z,11.70
2022-11-03T09:27:54.681Z,11.50
2022-11-03T09:30:21.306Z,11.70
2022-11-03T09:32:48.270Z,11.70
2022-11-03T09:35:14.903Z,11.90
2022-11-03T09:37:41.492Z,12.00
2022-11-03T09:40:09.734Z,12.10
2022-11-03T09:42:36.849Z,12.20
2022-11-03T09:45:04.721Z,12.30
2022-11-03T09:47:33.468Z,12.50
2022-11-03T09:50:00.433Z,14.00
2022-11-03T09:52:27.008Z,12.80
2022-11-03T09:54:57.091Z,12.80
2022-11-03T09:57:26.239Z,13.10
2022-11-03T09:59:52.939Z,13.10
2022-11-03T10:02:19.546Z,13.10
2022-11-03T10:04:46.296Z,13.30
2022-11-03T10:07:12.961Z,13.70
2022-11-03T10:09:42.267Z,13.50
2022-11-03T10:12:09.312Z,13.70
2022-11-03T10:14:36.046Z,14.80
2022-11-03T10:17:02.618Z,14.60
2022-11-03T10:19:29.272Z,14.00
2022-11-03T10:21:55.844Z,14.20
2022-11-03T10:24:22.550Z,14.60
2022-11-03T10:26:50.140Z,14.70
2022-11-03T10:29:26.863Z,15.50
2022-11-03T10:31:54.736Z,14.70
2022-11-03T10:34:35.014Z,15.00
2022-11-03T10:37:13.906Z,14.80
2022-11-03T10:39:40.521Z,15.00
2022-11-03T10:42:18.981Z,15.30
2022-11-03T10:44:45.563Z,15.60
2022-11-03T10:47:30.891Z,15.80
2022-11-03T10:49:57.596Z,15.60
2022-11-03T10:52:25.841Z,15.80
2022-11-03T10:54:53.836Z,16.00
2022-11-03T10:57:21.328Z,16.80
2022-11-03T10:59:49.142Z,16.70
2022-11-03T11:02:18.440Z,17.70
2022-11-03T11:04:49.144Z,19.00
2022-11-03T11:07:24.961Z,20.40
2022-11-03T11:09:52.104Z,21.80
2022-11-03T11:12:21.856Z,23.30
2022-11-03T11:14:56.299Z,24.30
2022-11-03T11:17:38.214Z,25.60
2022-11-03T11:20:23.725Z,25.70
2022-11-03T11:22:50.649Z,26.50
2022-11-03T11:25:18.577Z,27.10
2022-11-03T11:27:45.167Z,26.70
2022-11-03T11:30:20.913Z,24.10
2022-11-03T11:32:56.304Z,24.60
2022-11-03T11:35:22.850Z,24.10
2022-11-03T11:37:49.590Z,24.20
2022-11-03T11:40:25.260Z,24.80
2022-11-03T11:43:07.345Z,24.70
2022-11-03T11:45:52.970Z,25.50
2022-11-03T11:48:19.677Z,25.80
2022-11-03T11:50:46.248Z,25.40
2022-11-03T11:53:14.026Z,24.80
2022-11-03T11:55:42.201Z,24.20
2022-11-03T11:58:27.570Z,23.60
2022-11-03T12:00:55.555Z,22.10
2022-11-03T12:03:24.951Z,21.90
2022-11-03T12:05:51.545Z,22.40
2022-11-03T12:08:19.022Z,22.80
2022-11-03T12:10:52.479Z,23.00
2022-11-03T12:13:38.022Z,23.20
2022-11-03T12:16:04.737Z,23.40
2022-11-03T12:18:39.174Z,23.40
2022-11-03T12:21:06.846Z,23.50
2022-11-03T12:23:43.661Z,24.00
2022-11-03T12:26:17.914Z,24.20
2022-11-03T12:28:44.576Z,24.30
2022-11-03T12:31:11.256Z,22.50
2022-11-03T12:33:38.666Z,22.70
2022-11-03T12:36:05.353Z,22.50
2022-11-03T12:38:31.991Z,22.10
2022-11-03T12:41:18.534Z,21.90
2022-11-03T12:43:45.278Z,21.30
2022-11-03T12:46:12.607Z,21.10
2022-11-03T12:48:43.816Z,20.30
2022-11-03T12:51:17.669Z,19.90
2022-11-03T12:53:44.472Z,19.50
2022-11-03T12:56:11.785Z,19.40
2022-11-03T12:58:38.621Z,19.50
2022-11-03T13:01:05.693Z,19.40
2022-11-03T13:03:32.671Z,19.20
2022-11-03T13:05:59.492Z,19.10
2022-11-03T13:08:26.151Z,18.80
2022-11-03T13:10:52.959Z,18.50
2022-11-03T13:13:19.997Z,18.50
2022-11-03T13:15:46.967Z,18.50
2022-11-03T13:18:14.405Z,18.40
2022-11-03T13:20:41.348Z,18.40
2022-11-03T13:23:08.362Z,18.40
2022-11-03T13:25:35.418Z,18.50
2022-11-03T13:28:03.840Z,18.70
2022-11-03T13:30:30.714Z,18.70
2022-11-03T13:32:57.285Z,18.60
2022-11-03T13:35:23.906Z,18.60
2022-11-03T13:37:50.493Z,18.20
2022-11-03T13:43:04.151Z,18.20
2022-11-03T13:45:30.956Z,18.20
2022-11-03T13:48:47.453Z,18.20
2022-11-03T13:50:45.345Z,18.00
2022-11-03T13:56:03.174Z,17.90
2022-11-03T14:01:21.204Z,17.70
2022-11-03T14:06:35.748Z,17.60
2022-11-03T14:09:02.777Z,17.60
2022-11-03T14:11:47.941Z,17.40
2022-11-03T14:14:14.519Z,17.40
2022-11-03T14:16:41.177Z,17.30
2022-11-03T14:19:07.832Z,17.10
2022-11-03T14:21:37.251Z,16.90
2022-11-03T14:24:05.109Z,16.80
2022-11-03T14:26:42.153Z,16.70
2022-11-03T14:29:09.646Z,16.80
2022-11-03T14:31:38.093Z,16.50
2022-11-03T14:34:04.735Z,16.40
2022-11-03T14:36:31.570Z,16.20
2022-11-03T14:38:58.190Z,16.00
2022-11-03T14:41:43.673Z,15.80
2022-11-03T14:44:10.426Z,15.60
2022-11-03T14:46:37.029Z,15.50
2022-11-03T14:49:03.745Z,15.30
2022-11-03T14:51:30.820Z,15.30
2022-11-03T14:53:58.323Z,15.20
2022-11-03T14:56:24.995Z,15.70
2022-11-03T14:58:51.692Z,15.10
2022-11-03T15:01:18.562Z,15.00
2022-11-03T15:03:45.358Z,14.90
2022-11-03T15:06:11.996Z,15.60
2022-11-03T15:08:38.987Z,15.50
2022-11-03T15:11:07.823Z,14.60
2022-11-03T15:13:39.624Z,14.50
2022-11-03T15:16:11.635Z,14.50
2022-11-03T15:18:38.212Z,14.40
2022-11-03T15:21:05.020Z,14.30
2022-11-03T15:26:18.146Z,14.10
2022-11-03T15:28:44.793Z,13.90
2022-11-03T15:31:11.473Z,15.10
2022-11-03T15:33:38.053Z,13.90
2022-11-03T15:36:07.077Z,13.80
2022-11-03T15:38:34.202Z,13.70
2022-11-03T15:41:16.133Z,13.90
2022-11-03T15:43:46.978Z,13.60
2022-11-03T15:46:14.263Z,13.60
2022-11-03T15:48:42.055Z,13.60
2022-11-03T15:51:08.882Z,13.40
2022-11-03T15:53:35.531Z,13.30
2022-11-03T15:56:02.723Z,13.20
2022-11-03T15:58:33.020Z,13.20
2022-11-03T16:01:00.559Z,13.30
2022-11-03T16:03:27.311Z,12.50
2022-11-03T16:05:53.988Z,13.20
2022-11-03T16:08:20.533Z,13.60
2022-11-03T16:10:51.934Z,14.00
2022-11-03T16:13:23.300Z,13.20
2022-11-03T16:18:16.997Z,12.90
2022-11-03T16:23:10.728Z,12.90
2022-11-03T16:25:37.533Z,13.00
2022-11-03T16:28:04.524Z,12.80
2022-11-03T16:30:31.710Z,12.80
2022-11-03T16:35:25.705Z,12.80
2022-11-03T16:37:52.318Z,12.90
2022-11-03T16:40:19.909Z,12.80
2022-11-03T16:42:47.061Z,13.10
2022-11-03T16:45:21.121Z,12.70
2022-11-03T16:47:48.639Z,12.70
2022-11-03T16:50:16.335Z,12.70
2022-11-03T16:52:43.201Z,12.70
2022-11-03T16:55:11.855Z,12.60
2022-11-03T16:57:41.413Z,12.60
2022-11-03T17:00:12.657Z,12.50
2022-11-03T17:02:39.427Z,12.50
2022-11-03T17:05:06.197Z,14.00
2022-11-03T17:07:33.230Z,12.50
2022-11-03T17:09:59.931Z,12.40
2022-11-03T17:12:26.568Z,13.80
2022-11-03T17:14:55.749Z,12.40
2022-11-03T17:17:23.657Z,12.40
2022-11-03T17:19:50.492Z,12.40
2022-11-03T17:22:17.189Z,12.40
2022-11-03T17:24:43.830Z,12.40
2022-11-03T17:27:15.018Z,13.00
2022-11-03T17:29:46.252Z,12.20
2022-11-03T17:32:20.347Z,12.10
2022-11-03T17:34:47.047Z,12.20
2022-11-03T17:37:13.641Z,12.10
2022-11-03T17:39:41.408Z,12.60
2022-11-03T17:42:14.842Z,12.60
2022-11-03T17:44:42.082Z,12.00
2022-11-03T17:47:08.693Z,12.00
2022-11-03T17:49:35.370Z,13.50
2022-11-03T17:52:02.121Z,12.10
2022-11-03T17:54:31.920Z,11.90
2022-11-03T17:57:00.088Z,11.80
2022-11-03T17:59:27.285Z,11.80
2022-11-03T18:01:54.180Z,11.90
2022-11-03T18:04:20.830Z,11.90
2022-11-03T18:06:47.653Z,12.90
2022-11-03T18:09:14.308Z,11.80
2022-11-03T18:12:00.144Z,11.70
2022-11-03T18:14:27.580Z,13.00
2022-11-03T18:16:54.608Z,11.80
2022-11-03T18:19:21.813Z,11.70
2022-11-03T18:21:48.497Z,11.80
2022-11-03T18:24:16.546Z,11.80
2022-11-03T18:26:43.110Z,12.60
2022-11-03T18:29:09.816Z,11.70
2022-11-03T18:31:38.589Z,12.90
2022-11-03T18:34:06.532Z,11.70
2022-11-03T18:36:34.145Z,12.00
2022-11-03T18:39:01.268Z,13.30
2022-11-03T18:41:40.517Z,11.60
2022-11-03T18:44:07.151Z,11.70
2022-11-03T18:46:33.711Z,11.60
2022-11-03T18:49:00.276Z,12.00
2022-11-03T18:51:27.128Z,12.20
2022-11-03T18:53:54.024Z,11.60
2022-11-03T18:56:20.629Z,11.70
2022-11-03T18:58:48.320Z,11.60
2022-11-03T19:01:22.577Z,11.70
2022-11-03T19:03:49.488Z,11.70
2022-11-03T19:06:16.712Z,11.70
2022-11-03T19:08:44.870Z,11.70
2022-11-03T19:11:11.981Z,11.60
2022-11-03T19:13:40.952Z,11.50
2022-11-03T19:16:13.245Z,12.30
2022-11-03T19:18:40.333Z,11.50
2022-11-03T19:21:14.044Z,11.50
2022-11-03T19:23:41.294Z,11.60
2022-11-03T19:26:15.290Z,12.00
2022-11-03T19:28:41.870Z,11.60
2022-11-03T19:31:20.150Z,12.40
2022-11-03T19:33:47.972Z,11.60
2022-11-03T19:36:14.599Z,11.60
2022-11-03T19:38:41.157Z,13.10
2022-11-03T19:41:33.392Z,11.90
2022-11-03T19:44:00.859Z,11.60
2022-11-03T19:46:28.030Z,11.60
2022-11-03T19:48:55.855Z,11.60
2022-11-03T19:51:22.753Z,11.70
2022-11-03T19:53:49.489Z,11.70
2022-11-03T19:56:16.503Z,11.90
2022-11-03T19:58:43.075Z,13.10
2022-11-03T20:01:09.691Z,11.70
2022-11-03T20:03:36.538Z,11.70
2022-11-03T20:06:03.197Z,14.00
2022-11-03T20:08:32.170Z,11.80
2022-11-03T20:10:58.855Z,11.90
2022-11-03T20:13:26.613Z,11.90
2022-11-03T20:15:58.913Z,12.70
2022-11-03T20:18:27.434Z,13.80
2022-11-03T20:20:54.178Z,13.10
2022-11-03T20:23:23.271Z,12.10
2022-11-03T20:25:49.958Z,12.10
2022-11-03T20:28:18.047Z,12.10
2022-11-03T20:30:44.680Z,12.10
2022-11-03T20:33:16.050Z,12.30
2022-11-03T20:35:43.270Z,12.00
2022-11-03T20:38:12.128Z,12.10
2022-11-03T20:40:39.326Z,12.10
2022-11-03T20:43:06.397Z,12.00
2022-11-03T20:45:33.007Z,12.00
2022-11-03T20:47:59.728Z,12.10
2022-11-03T20:50:26.362Z,11.90
2022-11-03T20:52:53.048Z,11.90
2022-11-03T20:55:27.174Z,11.80
2022-11-03T20:57:54.062Z,11.80
2022-11-03T21:00:24.768Z,11.80
2022-11-03T21:02:51.744Z,11.80
2022-11-03T21:05:18.376Z,11.80
2022-11-03T21:07:45.060Z,12.10
2022-11-03T21:10:14.554Z,11.80
2022-11-03T21:12:44.748Z,11.90
2022-11-03T21:16:10.611Z,11.90
2022-11-03T21:18:52.573Z,11.90
2022-11-03T21:21:21.165Z,11.90
2022-11-03T21:23:48.088Z,11.90
2022-11-03T21:26:14.661Z,12.00
2022-11-03T21:28:41.376Z,12.50
2022-11-03T21:31:11.146Z,11.90
2022-11-03T21:33:37.713Z,12.90
2022-11-03T21:36:04.600Z,13.00
2022-11-03T21:38:31.185Z,11.90
2022-11-03T21:41:17.737Z,11.90
2022-11-03T21:44:03.151Z,11.90
2022-11-03T21:46:29.859Z,12.20
2022-11-03T21:49:14.906Z,12.30
2022-11-03T21:51:41.481Z,12.00
2022-11-03T21:54:08.074Z,12.00
2022-11-03T21:56:34.645Z,13.10
2022-11-03T21:59:01.216Z,11.90
2022-11-03T22:01:27.858Z,11.90
2022-11-03T22:03:55.228Z,11.90
2022-11-03T22:06:21.797Z,13.00
2022-11-03T22:08:48.462Z,12.60
2022-11-03T22:11:24.224Z,11.90
2022-11-03T22:13:53.734Z,11.80
2022-11-03T22:16:40.712Z,11.80
2022-11-03T22:19:26.951Z,11.80
2022-11-03T22:22:12.462Z,12.30
2022-11-03T22:24:58.140Z,11.80
2022-11-03T22:27:25.090Z,12.60
2022-11-03T22:30:10.145Z,12.10
2022-11-03T22:32:36.849Z,11.80
2022-11-03T22:35:22.703Z,11.80
2022-11-03T22:38:00.807Z,11.80
2022-11-03T22:41:02.634Z,11.90
2022-11-03T22:43:47.986Z,11.90
2022-11-03T22:46:15.745Z,12.80
2022-11-03T22:48:42.350Z,11.90
2022-11-03T22:51:10.278Z,11.90
2022-11-03T22:53:55.902Z,11.80
2022-11-03T22:56:23.543Z,13.30
2022-11-03T22:58:50.361Z,11.90
2022-11-03T23:01:21.192Z,11.80
2022-11-03T23:03:48.196Z,11.60
2022-11-03T23:06:18.615Z,11.70
2022-11-03T23:08:46.244Z,11.70
2022-11-03T23:11:16.071Z,12.20
2022-11-03T23:13:43.775Z,11.60
2022-11-03T23:16:15.136Z,11.60
2022-11-03T23:19:00.086Z,11.70
2022-11-03T23:21:28.259Z,11.80
2022-11-03T23:24:13.871Z,12.10
2022-11-03T23:26:40.741Z,12.20
2022-11-03T23:29:07.417Z,12.60
2022-11-03T23:31:34.744Z,12.50
2022-11-03T23:34:01.612Z,13.10
2022-11-03T23:36:28.650Z,12.60
2022-11-03T23:38:56.078Z,12.60
2022-11-03T23:41:22.933Z,12.60
2022-11-03T23:43:49.725Z,12.70
2022-11-03T23:46:36.002Z,12.80
2022-11-03T23:49:02.708Z,13.20
2022-11-03T23:51:30.274Z,12.80
2022-11-03T23:53:57.433Z,12.80
2022-11-03T23:56:43.853Z,12.70
2022-11-03T23:59:11.529Z,12.60
